sensor_id;sensor_type;location;lat;lon;timestamp;temperature;humidity
12374;DHT22;6251;51.762;8.660;2023-03-23T00:08:44;12.00;99.90
12374;DHT22;6251;51.762;8.660;2023-03-23T02:00:29;11.80;99.90
12374;DHT22;6251;51.762;8.660;2023-03-23T02:10:31;11.80;99.90
12374;DHT22;6251;51.762;8.660;2023-03-23T03:52:05;11.00;99.90
12374;DHT22;6251;51.762;8.660;2023-03-23T05:03:08;10.90;99.90
12374;DHT22;6251;51.762;8.660;2023-03-23T05:13:10;10.90;99.90
12374;DHT22;6251;51.762;8.660;2023-03-23T05:23:10;10.90;99.90
12374;DHT22;6251;51.762;8.660;2023-03-23T05:33:11;10.90;99.90
12374;DHT22;6251;51.762;8.660;2023-03-23T05:43:12;11.00;99.90
12374;DHT22;6251;51.762;8.660;2023-03-23T05:53:31;11.00;99.90
12374;DHT22;6251;51.762;8.660;2023-03-23T06:03:31;11.10;99.90
12374;DHT22;6251;51.762;8.660;2023-03-23T06:13:32;11.20;99.90
12374;DHT22;6251;51.762;8.660;2023-03-23T06:23:32;11.30;99.90
12374;DHT22;6251;51.762;8.660;2023-03-23T06:33:34;11.50;99.90
12374;DHT22;6251;51.762;8.660;2023-03-23T06:43:35;11.60;99.90
12374;DHT22;6251;51.762;8.660;2023-03-23T06:53:39;11.60;99.90
12374;DHT22;6251;51.762;8.660;2023-03-23T07:03:40;11.70;99.90
12374;DHT22;6251;51.762;8.660;2023-03-23T07:13:41;11.70;99.90
12374;DHT22;6251;51.762;8.660;2023-03-23T07:23:41;11.90;99.90
12374;DHT22;6251;51.762;8.660;2023-03-23T07:33:42;12.10;99.90
12374;DHT22;6251;51.762;8.660;2023-03-23T07:43:44;12.30;99.90
12374;DHT22;6251;51.762;8.660;2023-03-23T07:53:44;12.50;99.90
12374;DHT22;6251;51.762;8.660;2023-03-23T08:03:45;12.70;99.90
12374;DHT22;6251;51.762;8.660;2023-03-23T08:13:46;13.00;99.90
12374;DHT22;6251;51.762;8.660;2023-03-23T08:23:47;13.10;99.90
12374;DHT22;6251;51.762;8.660;2023-03-23T08:33:47;13.40;99.90
12374;DHT22;6251;51.762;8.660;2023-03-23T08:43:48;13.60;99.90
12374;DHT22;6251;51.762;8.660;2023-03-23T08:53:48;13.70;99.90
12374;DHT22;6251;51.762;8.660;2023-03-23T09:03:49;13.80;99.90
12374;DHT22;6251;51.762;8.660;2023-03-23T09:13:50;14.00;99.90
12374;DHT22;6251;51.762;8.660;2023-03-23T09:23:51;14.20;99.90
12374;DHT22;6251;51.762;8.660;2023-03-23T09:33:54;14.30;99.90
12374;DHT22;6251;51.762;8.660;2023-03-23T09:54:31;14.40;99.90
12374;DHT22;6251;51.762;8.660;2023-03-23T10:04:43;14.30;99.90
12374;DHT22;6251;51.762;8.660;2023-03-23T10:35:25;14.50;99.90
12374;DHT22;6251;51.762;8.660;2023-03-23T10:45:28;14.50;99.90
12374;DHT22;6251;51.762;8.660;2023-03-23T10:55:40;14.90;99.90
12374;DHT22;6251;51.762;8.660;2023-03-23T11:05:44;15.40;99.90
12374;DHT22;6251;51.762;8.660;2023-03-23T11:15:46;15.40;99.90
12374;DHT22;6251;51.762;8.660;2023-03-23T11:25:56;15.50;99.90
12374;DHT22;6251;51.762;8.660;2023-03-23T11:35:58;15.20;99.90
12374;DHT22;6251;51.762;8.660;2023-03-23T12:17:06;11.90;99.90
12374;DHT22;6251;51.762;8.660;2023-03-23T12:27:53;11.20;99.90
12374;DHT22;6251;51.762;8.660;2023-03-23T12:58:09;11.20;99.90
12374;DHT22;6251;51.762;8.660;2023-03-23T13:08:19;11.50;99.90
12374;DHT22;6251;51.762;8.660;2023-03-23T13:18:38;11.50;99.90
12374;DHT22;6251;51.762;8.660;2023-03-23T13:28:58;11.40;99.90
12374;DHT22;6251;51.762;8.660;2023-03-23T13:39:02;11.50;99.90
12374;DHT22;6251;51.762;8.660;2023-03-23T13:59:16;11.30;99.90
12374;DHT22;6251;51.762;8.660;2023-03-23T14:09:39;11.40;99.90
12374;DHT22;6251;51.762;8.660;2023-03-23T14:19:42;11.40;99.90
12374;DHT22;6251;51.762;8.660;2023-03-23T14:29:45;11.30;99.90
12374;DHT22;6251;51.762;8.660;2023-03-23T14:39:48;11.50;99.90
12374;DHT22;6251;51.762;8.660;2023-03-23T14:49:55;11.60;99.90
12374;DHT22;6251;51.762;8.660;2023-03-23T14:59:56;11.80;99.90
12374;DHT22;6251;51.762;8.660;2023-03-23T15:09:57;12.40;99.90
12374;DHT22;6251;51.762;8.660;2023-03-23T15:20:08;12.40;99.90
12374;DHT22;6251;51.762;8.660;2023-03-23T15:40:24;12.10;99.90
12374;DHT22;6251;51.762;8.660;2023-03-23T16:00:28;12.30;99.90
12374;DHT22;6251;51.762;8.660;2023-03-23T16:10:29;12.70;99.90
12374;DHT22;6251;51.762;8.660;2023-03-23T16:20:30;13.40;99.90
12374;DHT22;6251;51.762;8.660;2023-03-23T16:30:33;15.60;99.90
12374;DHT22;6251;51.762;8.660;2023-03-23T16:40:42;14.50;99.90
12374;DHT22;6251;51.762;8.660;2023-03-23T16:50:43;13.80;99.90
12374;DHT22;6251;51.762;8.660;2023-03-23T17:00:48;13.30;99.90
12374;DHT22;6251;51.762;8.660;2023-03-23T17:10:49;13.00;99.90
12374;DHT22;6251;51.762;8.660;2023-03-23T17:20:52;12.70;99.90
12374;DHT22;6251;51.762;8.660;2023-03-23T17:30:52;12.60;99.90
12374;DHT22;6251;51.762;8.660;2023-03-23T17:40:57;12.60;99.90
12374;DHT22;6251;51.762;8.660;2023-03-23T17:50:59;12.20;99.90
12374;DHT22;6251;51.762;8.660;2023-03-23T18:01:02;11.90;99.90
12374;DHT22;6251;51.762;8.660;2023-03-23T18:11:03;11.40;99.90
12374;DHT22;6251;51.762;8.660;2023-03-23T18:21:06;11.10;99.90
12374;DHT22;6251;51.762;8.660;2023-03-23T18:31:12;10.80;99.90
12374;DHT22;6251;51.762;8.660;2023-03-23T18:41:15;10.60;99.90
12374;DHT22;6251;51.762;8.660;2023-03-23T18:51:16;10.40;99.90
12374;DHT22;6251;51.762;8.660;2023-03-23T19:01:17;10.20;99.90
12374;DHT22;6251;51.762;8.660;2023-03-23T19:11:18;10.00;99.90
12374;DHT22;6251;51.762;8.660;2023-03-23T19:21:19;9.90;99.90
12374;DHT22;6251;51.762;8.660;2023-03-23T19:31:20;10.00;99.90
12374;DHT22;6251;51.762;8.660;2023-03-23T19:41:24;10.00;99.90
12374;DHT22;6251;51.762;8.660;2023-03-23T19:51:26;10.10;99.90
12374;DHT22;6251;51.762;8.660;2023-03-23T20:01:27;10.10;99.90
12374;DHT22;6251;51.762;8.660;2023-03-23T20:11:28;10.30;99.90
12374;DHT22;6251;51.762;8.660;2023-03-23T20:21:29;10.40;99.90
12374;DHT22;6251;51.762;8.660;2023-03-23T20:31:32;10.40;99.90
12374;DHT22;6251;51.762;8.660;2023-03-23T20:41:33;10.30;99.90
12374;DHT22;6251;51.762;8.660;2023-03-23T20:51:38;10.30;99.90
12374;DHT22;6251;51.762;8.660;2023-03-23T21:01:50;10.30;99.90
12374;DHT22;6251;51.762;8.660;2023-03-23T21:11:50;10.30;99.90
12374;DHT22;6251;51.762;8.660;2023-03-23T21:21:51;10.50;99.90
12374;DHT22;6251;51.762;8.660;2023-03-23T21:31:54;10.70;99.90
12374;DHT22;6251;51.762;8.660;2023-03-23T21:41:55;10.90;99.90
12374;DHT22;6251;51.762;8.660;2023-03-23T21:51:55;11.20;99.90
